sensor_id;sensor_type;location;lat;lon;timestamp;P1;durP1;ratioP1;P2;durP2;ratioP2
9034;SDS011;4552;43.422;24.592;2024-03-25T00:03:41;3.87;;;3.57;;
9034;SDS011;4552;43.422;24.592;2024-03-25T00:06:10;4.10;;;3.80;;
9034;SDS011;4552;43.422;24.592;2024-03-25T00:08:36;4.77;;;4.37;;
9034;SDS011;4552;43.422;24.592;2024-03-25T00:11:03;4.97;;;4.57;;
9034;SDS011;4552;43.422;24.592;2024-03-25T00:13:29;4.60;;;4.20;;
9034;SDS011;4552;43.422;24.592;2024-03-25T00:15:56;4.60;;;4.20;;
9034;SDS011;4552;43.422;24.592;2024-03-25T00:25:07;5.63;;;3.17;;
9034;SDS011;4552;43.422;24.592;2024-03-25T00:27:34;3.23;;;2.57;;
9034;SDS011;4552;43.422;24.592;2024-03-25T00:30:01;4.37;;;3.10;;
9034;SDS011;4552;43.422;24.592;2024-03-25T00:52:40;4.43;;;3.30;;
9034;SDS011;4552;43.422;24.592;2024-03-25T00:55:07;3.47;;;2.93;;
9034;SDS011;4552;43.422;24.592;2024-03-25T00:57:33;3.93;;;3.30;;
9034;SDS011;4552;43.422;24.592;2024-03-25T01:00:00;5.07;;;2.93;;
9034;SDS011;4552;43.422;24.592;2024-03-25T01:02:26;6.03;;;3.67;;
9034;SDS011;4552;43.422;24.592;2024-03-25T01:11:38;6.53;;;4.33;;
9034;SDS011;4552;43.422;24.592;2024-03-25T01:14:05;4.70;;;3.90;;
9034;SDS011;4552;43.422;24.592;2024-03-25T01:16:31;5.13;;;3.57;;
9034;SDS011;4552;43.422;24.592;2024-03-25T01:18:59;5.67;;;4.03;;
9034;SDS011;4552;43.422;24.592;2024-03-25T01:21:24;4.60;;;3.70;;
9034;SDS011;4552;43.422;24.592;2024-03-25T01:23:51;5.30;;;3.77;;
9034;SDS011;4552;43.422;24.592;2024-03-25T01:26:17;6.33;;;3.87;;
9034;SDS011;4552;43.422;24.592;2024-03-25T01:28:46;5.17;;;3.93;;
9034;SDS011;4552;43.422;24.592;2024-03-25T01:31:12;5.97;;;3.90;;
9034;SDS011;4552;43.422;24.592;2024-03-25T01:37:18;6.23;;;4.13;;
9034;SDS011;4552;43.422;24.592;2024-03-25T01:39:45;5.17;;;3.90;;
9034;SDS011;4552;43.422;24.592;2024-03-25T01:42:11;7.17;;;4.43;;
9034;SDS011;4552;43.422;24.592;2024-03-25T01:44:41;6.20;;;4.00;;
9034;SDS011;4552;43.422;24.592;2024-03-25T01:47:09;5.40;;;4.20;;
9034;SDS011;4552;43.422;24.592;2024-03-25T01:49:39;6.90;;;4.30;;
9034;SDS011;4552;43.422;24.592;2024-03-25T01:52:05;5.00;;;3.73;;
9034;SDS011;4552;43.422;24.592;2024-03-25T01:54:33;7.40;;;4.47;;
9034;SDS011;4552;43.422;24.592;2024-03-25T01:56:59;7.20;;;4.83;;
9034;SDS011;4552;43.422;24.592;2024-03-25T01:59:26;5.90;;;5.00;;
9034;SDS011;4552;43.422;24.592;2024-03-25T02:01:55;8.03;;;5.17;;
9034;SDS011;4552;43.422;24.592;2024-03-25T02:04:23;6.57;;;4.60;;
9034;SDS011;4552;43.422;24.592;2024-03-25T02:06:49;10.07;;;4.97;;
9034;SDS011;4552;43.422;24.592;2024-03-25T02:09:18;6.50;;;4.80;;
9034;SDS011;4552;43.422;24.592;2024-03-25T02:11:44;8.50;;;5.03;;
9034;SDS011;4552;43.422;24.592;2024-03-25T02:14:12;9.00;;;4.60;;
9034;SDS011;4552;43.422;24.592;2024-03-25T02:16:37;7.73;;;5.37;;
9034;SDS011;4552;43.422;24.592;2024-03-25T02:25:50;7.10;;;5.63;;
9034;SDS011;4552;43.422;24.592;2024-03-25T02:28:17;11.23;;;4.93;;
9034;SDS011;4552;43.422;24.592;2024-03-25T02:30:43;7.03;;;5.07;;
9034;SDS011;4552;43.422;24.592;2024-03-25T02:39:55;7.03;;;5.23;;
9034;SDS011;4552;43.422;24.592;2024-03-25T02:42:26;7.27;;;5.60;;
9034;SDS011;4552;43.422;24.592;2024-03-25T02:44:53;6.70;;;4.90;;
9034;SDS011;4552;43.422;24.592;2024-03-25T02:47:24;9.00;;;5.47;;
9034;SDS011;4552;43.422;24.592;2024-03-25T02:56:13;8.00;;;5.13;;
9034;SDS011;4552;43.422;24.592;2024-03-25T02:58:40;11.73;;;5.47;;
9034;SDS011;4552;43.422;24.592;2024-03-25T03:01:07;8.63;;;5.30;;
9034;SDS011;4552;43.422;24.592;2024-03-25T03:58:33;7.83;;;5.20;;
9034;SDS011;4552;43.422;24.592;2024-03-25T04:01:00;6.03;;;4.60;;
9034;SDS011;4552;43.422;24.592;2024-03-25T04:03:26;10.63;;;6.05;;
9034;SDS011;4552;43.422;24.592;2024-03-25T04:05:53;9.60;;;6.13;;
9034;SDS011;4552;43.422;24.592;2024-03-25T04:08:20;9.50;;;5.37;;
9034;SDS011;4552;43.422;24.592;2024-03-25T04:10:47;7.83;;;5.67;;
9034;SDS011;4552;43.422;24.592;2024-03-25T04:13:13;11.90;;;5.73;;
9034;SDS011;4552;43.422;24.592;2024-03-25T04:15:42;9.73;;;6.50;;
9034;SDS011;4552;43.422;24.592;2024-03-25T04:18:08;11.30;;;5.63;;
9034;SDS011;4552;43.422;24.592;2024-03-25T04:20:36;11.53;;;5.77;;
9034;SDS011;4552;43.422;24.592;2024-03-25T04:23:02;7.60;;;5.90;;
9034;SDS011;4552;43.422;24.592;2024-03-25T04:25:32;8.13;;;5.50;;
9034;SDS011;4552;43.422;24.592;2024-03-25T04:27:58;8.60;;;6.20;;
9034;SDS011;4552;43.422;24.592;2024-03-25T04:30:25;11.40;;;6.73;;
9034;SDS011;4552;43.422;24.592;2024-03-25T04:32:53;10.23;;;6.00;;
9034;SDS011;4552;43.422;24.592;2024-03-25T04:35:20;10.80;;;6.63;;
9034;SDS011;4552;43.422;24.592;2024-03-25T04:37:46;11.73;;;7.23;;
9034;SDS011;4552;43.422;24.592;2024-03-25T04:40:12;10.53;;;6.77;;
9034;SDS011;4552;43.422;24.592;2024-03-25T04:42:38;11.50;;;6.17;;
9034;SDS011;4552;43.422;24.592;2024-03-25T04:45:05;11.47;;;7.00;;
9034;SDS011;4552;43.422;24.592;2024-03-25T04:47:31;10.47;;;6.50;;
9034;SDS011;4552;43.422;24.592;2024-03-25T04:49:58;11.63;;;7.60;;
9034;SDS011;4552;43.422;24.592;2024-03-25T04:52:24;11.43;;;7.13;;
9034;SDS011;4552;43.422;24.592;2024-03-25T04:54:50;14.53;;;9.03;;
9034;SDS011;4552;43.422;24.592;2024-03-25T04:57:16;11.83;;;7.47;;
9034;SDS011;4552;43.422;24.592;2024-03-25T04:59:42;10.73;;;6.57;;
9034;SDS011;4552;43.422;24.592;2024-03-25T05:02:07;12.80;;;7.33;;
9034;SDS011;4552;43.422;24.592;2024-03-25T06:01:46;10.90;;;7.17;;
9034;SDS011;4552;43.422;24.592;2024-03-25T06:10:34;13.50;;;8.57;;
9034;SDS011;4552;43.422;24.592;2024-03-25T06:13:01;12.80;;;9.60;;
9034;SDS011;4552;43.422;24.592;2024-03-25T06:15:27;10.63;;;6.90;;
9034;SDS011;4552;43.422;24.592;2024-03-25T06:17:54;16.73;;;8.97;;
9034;SDS011;4552;43.422;24.592;2024-03-25T06:20:20;12.80;;;8.53;;
9034;SDS011;4552;43.422;24.592;2024-03-25T06:22:46;13.10;;;8.13;;
9034;SDS011;4552;43.422;24.592;2024-03-25T06:25:12;12.80;;;8.20;;
9034;SDS011;4552;43.422;24.592;2024-03-25T06:27:38;10.93;;;7.93;;
9034;SDS011;4552;43.422;24.592;2024-03-25T06:30:04;11.93;;;8.37;;
9034;SDS011;4552;43.422;24.592;2024-03-25T06:32:45;10.10;;;7.10;;
9034;SDS011;4552;43.422;24.592;2024-03-25T06:35:31;12.97;;;7.37;;
9034;SDS011;4552;43.422;24.592;2024-03-25T06:37:57;11.30;;;7.97;;
9034;SDS011;4552;43.422;24.592;2024-03-25T06:40:23;10.23;;;7.27;;
9034;SDS011;4552;43.422;24.592;2024-03-25T06:42:49;12.97;;;8.90;;
9034;SDS011;4552;43.422;24.592;2024-03-25T06:45:15;12.33;;;8.10;;
9034;SDS011;4552;43.422;24.592;2024-03-25T06:47:41;11.67;;;8.40;;
9034;SDS011;4552;43.422;24.592;2024-03-25T07:00:15;12.17;;;8.13;;
9034;SDS011;4552;43.422;24.592;2024-03-25T07:02:41;11.13;;;8.30;;
9034;SDS011;4552;43.422;24.592;2024-03-25T07:08:32;12.60;;;7.80;;
9034;SDS011;4552;43.422;24.592;2024-03-25T07:10:58;13.43;;;7.73;;
9034;SDS011;4552;43.422;24.592;2024-03-25T07:13:24;9.63;;;7.27;;
9034;SDS011;4552;43.422;24.592;2024-03-25T07:15:53;11.00;;;7.53;;
9034;SDS011;4552;43.422;24.592;2024-03-25T07:18:18;11.97;;;7.80;;
9034;SDS011;4552;43.422;24.592;2024-03-25T07:47:40;10.77;;;7.93;;
9034;SDS011;4552;43.422;24.592;2024-03-25T07:50:07;10.07;;;7.90;;
9034;SDS011;4552;43.422;24.592;2024-03-25T07:52:33;10.17;;;8.73;;
9034;SDS011;4552;43.422;24.592;2024-03-25T07:55:01;9.07;;;7.30;;
9034;SDS011;4552;43.422;24.592;2024-03-25T07:57:26;9.67;;;8.17;;
9034;SDS011;4552;43.422;24.592;2024-03-25T07:59:52;11.57;;;8.30;;
9034;SDS011;4552;43.422;24.592;2024-03-25T08:02:18;8.47;;;5.57;;
9034;SDS011;4552;43.422;24.592;2024-03-25T09:08:40;8.47;;;5.10;;
9034;SDS011;4552;43.422;24.592;2024-03-25T09:11:20;8.70;;;5.43;;
9034;SDS011;4552;43.422;24.592;2024-03-25T09:13:46;6.87;;;4.87;;
9034;SDS011;4552;43.422;24.592;2024-03-25T09:16:12;9.00;;;5.60;;
9034;SDS011;4552;43.422;24.592;2024-03-25T09:18:38;6.57;;;4.57;;
9034;SDS011;4552;43.422;24.592;2024-03-25T09:57:25;7.80;;;5.40;;
9034;SDS011;4552;43.422;24.592;2024-03-25T09:59:51;8.40;;;5.37;;
9034;SDS011;4552;43.422;24.592;2024-03-25T10:02:18;8.60;;;5.77;;
9034;SDS011;4552;43.422;24.592;2024-03-25T10:04:45;6.83;;;5.40;;
9034;SDS011;4552;43.422;24.592;2024-03-25T10:07:16;8.60;;;5.90;;
9034;SDS011;4552;43.422;24.592;2024-03-25T10:09:47;7.70;;;5.70;;
9034;SDS011;4552;43.422;24.592;2024-03-25T10:12:13;6.70;;;5.20;;
9034;SDS011;4552;43.422;24.592;2024-03-25T10:14:41;6.30;;;4.80;;
9034;SDS011;4552;43.422;24.592;2024-03-25T10:17:07;8.00;;;4.60;;
9034;SDS011;4552;43.422;24.592;2024-03-25T11:26:51;2.20;;;1.87;;
9034;SDS011;4552;43.422;24.592;2024-03-25T11:29:18;2.23;;;1.93;;
9034;SDS011;4552;43.422;24.592;2024-03-25T11:31:44;2.20;;;2.00;;
9034;SDS011;4552;43.422;24.592;2024-03-25T11:34:10;3.47;;;2.00;;
9034;SDS011;4552;43.422;24.592;2024-03-25T11:36:36;1.97;;;1.77;;
9034;SDS011;4552;43.422;24.592;2024-03-25T11:39:03;2.07;;;1.80;;
9034;SDS011;4552;43.422;24.592;2024-03-25T11:41:29;2.10;;;1.90;;
9034;SDS011;4552;43.422;24.592;2024-03-25T11:43:58;3.70;;;2.17;;
9034;SDS011;4552;43.422;24.592;2024-03-25T11:46:24;2.30;;;1.77;;
9034;SDS011;4552;43.422;24.592;2024-03-25T11:48:51;1.70;;;1.60;;
9034;SDS011;4552;43.422;24.592;2024-03-25T12:15:11;1.95;;;1.75;;
9034;SDS011;4552;43.422;24.592;2024-03-25T12:17:39;2.73;;;1.63;;
9034;SDS011;4552;43.422;24.592;2024-03-25T12:20:06;1.70;;;1.60;;
9034;SDS011;4552;43.422;24.592;2024-03-25T12:22:33;1.80;;;1.67;;
9034;SDS011;4552;43.422;24.592;2024-03-25T12:24:59;2.50;;;1.83;;
9034;SDS011;4552;43.422;24.592;2024-03-25T12:27:27;2.03;;;1.80;;
9034;SDS011;4552;43.422;24.592;2024-03-25T12:29:57;2.00;;;1.80;;
9034;SDS011;4552;43.422;24.592;2024-03-25T12:32:32;2.10;;;1.90;;
9034;SDS011;4552;43.422;24.592;2024-03-25T12:35:02;1.80;;;1.70;;
9034;SDS011;4552;43.422;24.592;2024-03-25T12:37:28;4.13;;;1.80;;
9034;SDS011;4552;43.422;24.592;2024-03-25T12:39:54;2.50;;;1.90;;
9034;SDS011;4552;43.422;24.592;2024-03-25T12:42:20;3.03;;;2.03;;
9034;SDS011;4552;43.422;24.592;2024-03-25T12:44:46;2.50;;;1.97;;
9034;SDS011;4552;43.422;24.592;2024-03-25T12:47:12;2.30;;;2.10;;
9034;SDS011;4552;43.422;24.592;2024-03-25T12:49:40;2.83;;;2.03;;
9034;SDS011;4552;43.422;24.592;2024-03-25T12:52:06;2.10;;;1.73;;
9034;SDS011;4552;43.422;24.592;2024-03-25T12:54:32;2.00;;;1.80;;
9034;SDS011;4552;43.422;24.592;2024-03-25T12:56:58;1.73;;;1.63;;
9034;SDS011;4552;43.422;24.592;2024-03-25T12:59:24;3.13;;;1.80;;
9034;SDS011;4552;43.422;24.592;2024-03-25T13:01:50;1.97;;;1.53;;
9034;SDS011;4552;43.422;24.592;2024-03-25T13:04:16;2.50;;;2.00;;
9034;SDS011;4552;43.422;24.592;2024-03-25T13:09:24;3.77;;;1.70;;
9034;SDS011;4552;43.422;24.592;2024-03-25T13:11:50;1.80;;;1.70;;
9034;SDS011;4552;43.422;24.592;2024-03-25T13:14:16;2.43;;;1.50;;
9034;SDS011;4552;43.422;24.592;2024-03-25T13:16:42;2.10;;;1.30;;
9034;SDS011;4552;43.422;24.592;2024-03-25T13:19:08;3.53;;;1.50;;
9034;SDS011;4552;43.422;24.592;2024-03-25T13:21:34;2.87;;;1.70;;
9034;SDS011;4552;43.422;24.592;2024-03-25T13:24:02;2.20;;;1.57;;
9034;SDS011;4552;43.422;24.592;2024-03-25T13:26:28;1.53;;;1.43;;
9034;SDS011;4552;43.422;24.592;2024-03-25T13:28:54;1.93;;;1.70;;
9034;SDS011;4552;43.422;24.592;2024-03-25T13:31:20;3.07;;;1.70;;
9034;SDS011;4552;43.422;24.592;2024-03-25T13:33:46;4.20;;;1.47;;
9034;SDS011;4552;43.422;24.592;2024-03-25T13:36:14;1.93;;;1.30;;
9034;SDS011;4552;43.422;24.592;2024-03-25T13:38:40;2.23;;;1.80;;
9034;SDS011;4552;43.422;24.592;2024-03-25T13:41:08;2.73;;;1.73;;
9034;SDS011;4552;43.422;24.592;2024-03-25T13:43:34;1.50;;;1.40;;
9034;SDS011;4552;43.422;24.592;2024-03-25T13:46:00;3.07;;;1.60;;
9034;SDS011;4552;43.422;24.592;2024-03-25T13:48:25;1.93;;;1.70;;
9034;SDS011;4552;43.422;24.592;2024-03-25T17:28:37;1.80;;;1.60;;
9034;SDS011;4552;43.422;24.592;2024-03-25T17:31:06;1.63;;;1.53;;
9034;SDS011;4552;43.422;24.592;2024-03-25T17:33:32;1.93;;;1.60;;
9034;SDS011;4552;43.422;24.592;2024-03-25T18:29:49;9.30;;;8.80;;
9034;SDS011;4552;43.422;24.592;2024-03-25T18:32:15;9.30;;;8.80;;
9034;SDS011;4552;43.422;24.592;2024-03-25T18:34:41;3.27;;;3.07;;
9034;SDS011;4552;43.422;24.592;2024-03-25T19:44:24;13.20;;;12.30;;
9034;SDS011;4552;43.422;24.592;2024-03-25T19:46:50;13.00;;;12.20;;
9034;SDS011;4552;43.422;24.592;2024-03-25T19:49:16;12.87;;;12.07;;
9034;SDS011;4552;43.422;24.592;2024-03-25T19:51:42;13.10;;;12.30;;
9034;SDS011;4552;43.422;24.592;2024-03-25T19:54:10;12.93;;;12.13;;
9034;SDS011;4552;43.422;24.592;2024-03-25T19:56:36;10.80;;;10.20;;
9034;SDS011;4552;43.422;24.592;2024-03-25T19:59:02;13.10;;;12.30;;
9034;SDS011;4552;43.422;24.592;2024-03-25T20:01:29;13.00;;;12.20;;
9034;SDS011;4552;43.422;24.592;2024-03-25T20:03:55;13.23;;;12.30;;
9034;SDS011;4552;43.422;24.592;2024-03-25T20:19:16;12.73;;;11.93;;
9034;SDS011;4552;43.422;24.592;2024-03-25T20:21:42;12.73;;;11.93;;
9034;SDS011;4552;43.422;24.592;2024-03-25T20:24:08;12.80;;;12.00;;
9034;SDS011;4552;43.422;24.592;2024-03-25T20:26:35;12.97;;;12.10;;
9034;SDS011;4552;43.422;24.592;2024-03-25T20:29:01;13.00;;;12.10;;
9034;SDS011;4552;43.422;24.592;2024-03-25T20:31:28;12.60;;;11.80;;
9034;SDS011;4552;43.422;24.592;2024-03-25T20:33:55;12.83;;;12.03;;
9034;SDS011;4552;43.422;24.592;2024-03-25T20:36:21;12.90;;;12.10;;
9034;SDS011;4552;43.422;24.592;2024-03-25T20:38:47;12.87;;;12.17;;
9034;SDS011;4552;43.422;24.592;2024-03-25T20:41:13;13.40;;;12.60;;
9034;SDS011;4552;43.422;24.592;2024-03-25T20:43:39;14.20;;;13.10;;
9034;SDS011;4552;43.422;24.592;2024-03-25T20:46:05;13.97;;;12.93;;
9034;SDS011;4552;43.422;24.592;2024-03-25T20:48:30;13.67;;;12.77;;
9034;SDS011;4552;43.422;24.592;2024-03-25T20:50:58;13.40;;;12.50;;
9034;SDS011;4552;43.422;24.592;2024-03-25T20:53:27;13.20;;;12.33;;
9034;SDS011;4552;43.422;24.592;2024-03-25T20:55:53;13.20;;;12.30;;
9034;SDS011;4552;43.422;24.592;2024-03-25T20:58:19;13.60;;;12.60;;
9034;SDS011;4552;43.422;24.592;2024-03-25T21:00:45;13.20;;;12.30;;
9034;SDS011;4552;43.422;24.592;2024-03-25T21:03:12;13.30;;;12.40;;
9034;SDS011;4552;43.422;24.592;2024-03-25T21:05:38;12.80;;;12.00;;
9034;SDS011;4552;43.422;24.592;2024-03-25T21:08:05;12.80;;;12.00;;
9034;SDS011;4552;43.422;24.592;2024-03-25T21:10:31;12.80;;;12.00;;
9034;SDS011;4552;43.422;24.592;2024-03-25T21:12:57;12.97;;;11.97;;
9034;SDS011;4552;43.422;24.592;2024-03-25T21:15:23;12.63;;;11.83;;
9034;SDS011;4552;43.422;24.592;2024-03-25T21:41:23;12.47;;;11.67;;
9034;SDS011;4552;43.422;24.592;2024-03-25T21:43:49;12.00;;;11.30;;
9034;SDS011;4552;43.422;24.592;2024-03-25T21:46:14;12.43;;;11.70;;
9034;SDS011;4552;43.422;24.592;2024-03-25T21:48:40;12.57;;;11.67;;
9034;SDS011;4552;43.422;24.592;2024-03-25T21:51:06;12.57;;;11.77;;
9034;SDS011;4552;43.422;24.592;2024-03-25T21:53:32;13.10;;;12.30;;
9034;SDS011;4552;43.422;24.592;2024-03-25T21:55:58;12.90;;;12.10;;
9034;SDS011;4552;43.422;24.592;2024-03-25T21:58:25;13.17;;;12.23;;
9034;SDS011;4552;43.422;24.592;2024-03-25T22:00:51;12.87;;;12.07;;
9034;SDS011;4552;43.422;24.592;2024-03-25T22:03:17;12.57;;;11.80;;
9034;SDS011;4552;43.422;24.592;2024-03-25T22:25:58;2.00;;;1.70;;
9034;SDS011;4552;43.422;24.592;2024-03-25T22:28:24;2.20;;;2.00;;
9034;SDS011;4552;43.422;24.592;2024-03-25T22:30:55;2.53;;;2.10;;
9034;SDS011;4552;43.422;24.592;2024-03-25T22:33:23;3.03;;;1.83;;
9034;SDS011;4552;43.422;24.592;2024-03-25T22:42:34;2.20;;;2.00;;
9034;SDS011;4552;43.422;24.592;2024-03-25T22:45:00;2.80;;;1.97;;
9034;SDS011;4552;43.422;24.592;2024-03-25T22:47:26;1.80;;;1.70;;
9034;SDS011;4552;43.422;24.592;2024-03-25T22:49:52;2.20;;;1.80;;
9034;SDS011;4552;43.422;24.592;2024-03-25T22:52:18;2.47;;;1.93;;
9034;SDS011;4552;43.422;24.592;2024-03-25T22:54:44;2.50;;;2.20;;
9034;SDS011;4552;43.422;24.592;2024-03-25T22:57:10;3.60;;;1.90;;
9034;SDS011;4552;43.422;24.592;2024-03-25T22:59:37;2.20;;;2.00;;
9034;SDS011;4552;43.422;24.592;2024-03-25T23:02:03;2.20;;;2.00;;
9034;SDS011;4552;43.422;24.592;2024-03-25T23:04:29;4.80;;;2.20;;
9034;SDS011;4552;43.422;24.592;2024-03-25T23:30:14;2.07;;;1.87;;
9034;SDS011;4552;43.422;24.592;2024-03-25T23:32:40;2.10;;;1.90;;
9034;SDS011;4552;43.422;24.592;2024-03-25T23:35:06;4.37;;;2.20;;
9034;SDS011;4552;43.422;24.592;2024-03-25T23:37:32;10.47;;;4.70;;
9034;SDS011;4552;43.422;24.592;2024-03-25T23:39:58;10.07;;;4.70;;
9034;SDS011;4552;43.422;24.592;2024-03-25T23:42:24;2.17;;;1.97;;
9034;SDS011;4552;43.422;24.592;2024-03-25T23:44:50;3.00;;;1.93;;
9034;SDS011;4552;43.422;24.592;2024-03-25T23:47:17;2.27;;;2.00;;
9034;SDS011;4552;43.422;24.592;2024-03-25T23:49:43;3.07;;;2.10;;
9034;SDS011;4552;43.422;24.592;2024-03-25T23:52:09;5.53;;;2.30;;
9034;SDS011;4552;43.422;24.592;2024-03-25T23:54:35;1.93;;;1.83;;
9034;SDS011;4552;43.422;24.592;2024-03-25T23:57:04;1.90;;;1.80;;
9034;SDS011;4552;43.422;24.592;2024-03-25T23:59:31;1.73;;;1.60;;
